createdAt,value
2022-12-13T00:00:00.121Z,-13.88
2022-12-13T00:05:00.106Z,0
2022-12-13T00:10:00.096Z,2000.13
2022-12-13T00:15:00.119Z,2000.13
2022-12-13T00:20:00.089Z,0
2022-12-13T00:25:00.082Z,976.13
2022-12-13T00:30:00.084Z,0
2022-12-13T00:35:00.113Z,0
2022-12-13T00:40:00.170Z,0
2022-12-13T00:45:00.072Z,-10
2022-12-13T00:50:00.087Z,-10
2022-12-13T00:55:00.221Z,-10
2022-12-13T01:00:00.119Z,-10
2022-12-13T01:05:00.086Z,-10.5
2022-12-13T01:10:00.078Z,2000.13
2022-12-13T01:15:00.115Z,2000.13
2022-12-13T01:20:00.084Z,2000.13
2022-12-13T01:25:00.119Z,2000.13
2022-12-13T01:30:00.086Z,0
2022-12-13T01:35:00.244Z,0
2022-12-13T01:40:00.082Z,0
2022-12-13T01:45:00.095Z,-10.5
2022-12-13T01:50:00.089Z,-10.5
2022-12-13T01:55:03.115Z,-10.5
2022-12-13T02:00:00.123Z,-10.5
2022-12-13T02:05:00.188Z,-11
2022-12-13T02:10:00.082Z,-11
2022-12-13T02:15:00.422Z,0
2022-12-13T02:20:00.075Z,-11
2022-12-13T02:25:00.081Z,-11
2022-12-13T02:30:00.144Z,0
2022-12-13T02:35:00.114Z,-46.88
2022-12-13T02:40:00.095Z,0
2022-12-13T02:45:00.081Z,0
2022-12-13T02:50:00.082Z,0
2022-12-13T02:55:00.118Z,0
2022-12-13T03:00:00.084Z,0
2022-12-13T03:05:00.102Z,-11.5
2022-12-13T03:10:00.088Z,-11.5
2022-12-13T03:15:00.130Z,-11.5
2022-12-13T03:20:00.086Z,0
2022-12-13T03:25:00.106Z,-15.88
2022-12-13T03:30:00.114Z,-15.88
2022-12-13T03:35:00.840Z,0
2022-12-13T03:40:00.090Z,0
2022-12-13T03:45:00.080Z,-11.5
2022-12-13T03:50:00.094Z,0
2022-12-13T03:55:00.102Z,-13.38
2022-12-13T04:00:00.110Z,-12
2022-12-13T04:05:00.568Z,-12
2022-12-13T04:10:00.093Z,-12
2022-12-13T04:15:00.114Z,-12
2022-12-13T04:20:00.096Z,-12
2022-12-13T04:25:00.102Z,-12
2022-12-13T04:30:00.088Z,-12
2022-12-13T04:35:01.214Z,0
2022-12-13T04:40:00.639Z,0
2022-12-13T04:45:00.088Z,0
2022-12-13T04:50:00.095Z,0
2022-12-13T04:55:00.115Z,-12.5
2022-12-13T05:00:00.126Z,0
2022-12-13T05:05:00.136Z,0
2022-12-13T05:10:00.087Z,-44.88
2022-12-13T05:15:00.108Z,-44.88
2022-12-13T05:20:00.084Z,-12.5
2022-12-13T05:25:00.094Z,-12.5
2022-12-13T05:30:02.425Z,-12.5
2022-12-13T05:35:00.102Z,-12.5
2022-12-13T05:40:00.083Z,-13
2022-12-13T05:45:00.090Z,-12.88
2022-12-13T05:50:00.081Z,-12.88
2022-12-13T05:55:00.818Z,-13
2022-12-13T06:00:00.113Z,-13
2022-12-13T06:05:00.083Z,-13
2022-12-13T06:10:09.959Z,-13
2022-12-13T06:15:01.302Z,-16.5
2022-12-13T06:20:00.132Z,-16.5
2022-12-13T06:25:00.099Z,-16.5
2022-12-13T06:30:02.532Z,0
2022-12-13T06:35:00.108Z,0
2022-12-13T06:40:00.091Z,0
2022-12-13T06:45:00.100Z,0
2022-12-13T06:50:05.176Z,-15.5
2022-12-13T06:55:00.239Z,-15.5
2022-12-13T07:00:00.111Z,-15.5
2022-12-13T07:05:00.119Z,-15.5
2022-12-13T07:10:00.113Z,-15.5
2022-12-13T07:15:00.106Z,-15.5
2022-12-13T07:20:00.999Z,-15.5
2022-12-13T07:25:00.094Z,-15.5
2022-12-13T07:30:00.096Z,-15.5
2022-12-13T07:35:00.151Z,-15.5
2022-12-13T07:40:03.729Z,-15.5
2022-12-13T07:45:00.086Z,-15.5
2022-12-13T07:50:00.120Z,-15.5
2022-12-13T07:55:00.126Z,-15.5
2022-12-13T08:00:00.113Z,-15.5
2022-12-13T08:05:00.194Z,-15.5
2022-12-13T08:10:00.127Z,-15.5
2022-12-13T08:15:00.139Z,-15.5
2022-12-13T08:20:00.100Z,-15.5
2022-12-13T08:25:00.107Z,-15.5
2022-12-13T08:30:00.103Z,-15.5
2022-12-13T08:35:00.119Z,-15.5
2022-12-13T08:40:00.110Z,-15.5
2022-12-13T08:45:00.084Z,-15.5
2022-12-13T08:50:01.325Z,-15.5
2022-12-13T08:55:00.123Z,-15.5
2022-12-13T09:00:00.113Z,-15.5
2022-12-13T09:05:00.162Z,-15.5
2022-12-13T09:10:06.954Z,-15.5
2022-12-13T09:15:01.091Z,-15.5
2022-12-13T09:20:00.277Z,-15.5
2022-12-13T09:25:02.263Z,-15.5
2022-12-13T09:30:00.102Z,-15.5
2022-12-13T09:35:00.109Z,-15.5
2022-12-13T09:40:00.101Z,-15.5
2022-12-13T09:45:01.069Z,-15.5
2022-12-13T09:50:03.693Z,-15.5
2022-12-13T09:55:00.114Z,-15.5
2022-12-13T10:00:00.184Z,-15.5
2022-12-13T10:05:00.694Z,-15.5
2022-12-13T10:10:00.121Z,-15.5
2022-12-13T10:15:00.097Z,-15.5
2022-12-13T10:20:00.117Z,-15.5
2022-12-13T10:25:00.131Z,-15.5
2022-12-13T10:30:00.166Z,-15.5
2022-12-13T10:35:00.105Z,-15.5
2022-12-13T10:40:00.122Z,-15.5
2022-12-13T10:45:00.121Z,-15.5
2022-12-13T10:50:00.082Z,-15.5
2022-12-13T10:55:01.330Z,-15.5
2022-12-13T11:00:00.103Z,-15.5
2022-12-13T11:05:00.117Z,-15.5
2022-12-13T11:10:04.813Z,-15.5
2022-12-13T11:15:00.108Z,-15.5
2022-12-13T11:20:00.095Z,-15.5
2022-12-13T11:25:00.141Z,-15.5
2022-12-13T11:30:00.108Z,-15.5
2022-12-13T11:35:00.096Z,-15.5
2022-12-13T11:40:01.318Z,-15.5
2022-12-13T11:45:00.136Z,-15.5
2022-12-13T11:50:00.107Z,-15.5
2022-12-13T11:55:00.102Z,-15.5
2022-12-13T12:00:02.112Z,-15.5
2022-12-13T12:05:01.175Z,-15.5
2022-12-13T12:10:00.091Z,-15.5
2022-12-13T12:15:05.114Z,-15.5
2022-12-13T12:20:00.214Z,-15.5
2022-12-13T12:25:00.137Z,-15.5
2022-12-13T12:30:00.085Z,-15.5
2022-12-13T12:35:00.087Z,-15.5
2022-12-13T12:40:00.082Z,-15.5
2022-12-13T12:45:00.149Z,-15.5
2022-12-13T12:50:00.100Z,-15.5
2022-12-13T12:55:00.101Z,-15.5
2022-12-13T13:00:01.785Z,-15.5
2022-12-13T13:05:00.125Z,-15.5
2022-12-13T13:10:00.105Z,-15.5
2022-12-13T13:15:00.100Z,-15.5
2022-12-13T13:20:09.771Z,-15.5
2022-12-13T13:25:00.120Z,-15.5
2022-12-13T13:30:00.129Z,-15.5
2022-12-13T13:35:00.686Z,-15.5
2022-12-13T13:40:00.094Z,-15.5
2022-12-13T13:45:00.107Z,-15.5
2022-12-13T13:50:02.228Z,-15.5
2022-12-13T13:55:00.096Z,-15.5
2022-12-13T14:00:00.146Z,25
2022-12-13T14:05:00.135Z,25
2022-12-13T14:10:00.101Z,25
2022-12-13T14:15:01.258Z,25
2022-12-13T14:20:00.205Z,25
2022-12-13T14:25:00.122Z,0
2022-12-13T14:30:00.136Z,0
2022-12-13T14:35:24.642Z,0
2022-12-13T14:40:00.095Z,0
2022-12-13T14:45:00.133Z,0
2022-12-13T14:50:00.084Z,0
2022-12-13T14:55:00.101Z,0
2022-12-13T15:00:00.127Z,0
2022-12-13T15:05:00.142Z,0
2022-12-13T15:10:00.118Z,0
2022-12-13T15:15:00.097Z,0
2022-12-13T15:20:00.206Z,0
2022-12-13T15:25:00.115Z,-9.5
2022-12-13T15:30:00.094Z,-9.5
2022-12-13T15:35:00.092Z,0
2022-12-13T15:40:00.096Z,0
2022-12-13T15:45:00.148Z,0
2022-12-13T15:50:00.091Z,-13.88
2022-12-13T15:55:00.116Z,2000.13
2022-12-13T16:00:00.117Z,-13.88
2022-12-13T16:05:00.123Z,-13.88
2022-12-13T16:10:00.111Z,-13.88
2022-12-13T16:15:00.520Z,-13.88
2022-12-13T16:20:03.417Z,2001.13
2022-12-13T16:25:00.144Z,0
2022-12-13T16:30:00.218Z,-13
2022-12-13T16:35:00.092Z,0
2022-12-13T16:40:00.201Z,2000.13
2022-12-13T16:45:32.722Z,0
2022-12-13T16:50:00.250Z,0
2022-12-13T16:55:00.110Z,0
2022-12-13T17:00:00.110Z,0
2022-12-13T17:05:00.120Z,2001.13
2022-12-13T17:10:00.140Z,2001.13
2022-12-13T17:15:00.080Z,2001.13
2022-12-13T17:20:00.200Z,2001.13
2022-12-13T17:25:00.168Z,-11
2022-12-13T17:30:00.103Z,0
2022-12-13T17:35:00.096Z,0
2022-12-13T17:40:00.092Z,0
2022-12-13T17:45:00.115Z,0
2022-12-13T17:50:00.090Z,0
2022-12-13T17:55:00.080Z,0
2022-12-13T18:00:00.129Z,0
2022-12-13T18:05:00.566Z,0
2022-12-13T18:10:00.110Z,0
2022-12-13T18:15:00.150Z,0
2022-12-13T18:20:00.207Z,-15.5
2022-12-13T18:25:00.210Z,-15.5
2022-12-13T18:30:00.147Z,-15.5
2022-12-13T18:35:00.125Z,-15.5
2022-12-13T18:40:00.099Z,-12
2022-12-13T18:45:00.163Z,-12
2022-12-13T18:50:00.091Z,-12
2022-12-13T18:55:00.079Z,-12.5
2022-12-13T19:00:00.112Z,-12.5
2022-12-13T19:05:00.152Z,-12.5
2022-12-13T19:10:00.093Z,-12.5
2022-12-13T19:15:00.105Z,0
2022-12-13T19:20:00.131Z,-12.5
2022-12-13T19:25:00.111Z,-12.5
2022-12-13T19:30:00.100Z,-12.5
2022-12-13T19:35:00.083Z,-12.5
2022-12-13T19:40:00.080Z,-12.5
2022-12-13T19:45:00.123Z,-16
2022-12-13T19:50:00.113Z,0
2022-12-13T19:55:00.096Z,-13
2022-12-13T20:00:00.131Z,-13
2022-12-13T20:05:00.142Z,-13
2022-12-13T20:10:00.098Z,-13
2022-12-13T20:15:00.090Z,-13
2022-12-13T20:20:00.250Z,-13
2022-12-13T20:25:00.140Z,0
2022-12-13T20:30:00.127Z,0
2022-12-13T20:35:00.106Z,0
2022-12-13T20:40:00.118Z,-13
2022-12-13T20:45:00.128Z,25
2022-12-13T20:50:00.089Z,25
2022-12-13T20:55:00.093Z,-15.88
2022-12-13T21:00:00.101Z,-15.88
2022-12-13T21:05:00.118Z,-15.88
2022-12-13T21:10:00.108Z,0
2022-12-13T21:15:00.105Z,0
2022-12-13T21:20:00.211Z,0
2022-12-13T21:25:00.115Z,0
2022-12-13T21:30:00.101Z,-16
2022-12-13T21:35:00.084Z,0
2022-12-13T21:40:00.096Z,0
2022-12-13T21:45:02.241Z,0
2022-12-13T21:50:00.104Z,-15.88
2022-12-13T21:55:15.519Z,-15.88
2022-12-13T22:00:00.130Z,-15.88
2022-12-13T22:05:00.137Z,0
2022-12-13T22:10:00.095Z,0
2022-12-13T22:15:00.126Z,0
2022-12-13T22:20:00.203Z,0
2022-12-13T22:25:00.115Z,0
2022-12-13T22:30:00.105Z,2011.13
2022-12-13T22:35:00.092Z,2011.13
2022-12-13T22:40:00.099Z,2011.13
2022-12-13T22:45:00.109Z,2011.13
2022-12-13T22:50:00.086Z,2011.13
2022-12-13T22:55:00.079Z,2011.13
2022-12-13T23:00:00.138Z,2011.13
2022-12-13T23:05:00.110Z,2011.13
2022-12-13T23:10:00.102Z,2011.13
2022-12-13T23:15:00.088Z,2011.13
2022-12-13T23:20:00.180Z,2011.13
2022-12-13T23:25:00.110Z,2011.13
2022-12-13T23:30:00.126Z,2011.13
2022-12-13T23:35:00.072Z,2011.13
2022-12-13T23:40:00.092Z,2011.13
2022-12-13T23:45:00.118Z,2011.13
2022-12-13T23:50:00.099Z,2011.13
2022-12-13T23:55:00.086Z,0
